Terminal Aerodrome Forecast
Issued by NWS Paducah, KY

Home | Current Version | Previous Version | Text Only | Print | Product List | Glossary On
Versions: 1 2 3 4 5 6 7 8 9 10 11 12 13
000
FTUS43 KPAH 201122
TAFEVV
TAF
KEVV 201122Z 2012/2112 00000KT P6SM SKC
     FM201300 24006KT P6SM FEW050
     FM210100 21003KT P6SM SKC
     FM210700 00000KT 6SM BR SKC=

USA.gov is the U.S. government's official web portal to all federal, state and local government web resources and services.